sensor_id;sensor_type;location;lat;lon;timestamp;temperature;humidity
64111;DHT22;50401;48.188;11.566;2023-08-17T00:00:14;22.26;78.76
64111;DHT22;50401;48.188;11.566;2023-08-17T00:02:40;22.43;78.57
64111;DHT22;50401;48.188;11.566;2023-08-17T00:05:06;22.52;78.13
64111;DHT22;50401;48.188;11.566;2023-08-17T00:07:33;22.57;77.95
64111;DHT22;50401;48.188;11.566;2023-08-17T00:09:58;22.54;77.96
64111;DHT22;50401;48.188;11.566;2023-08-17T00:12:24;22.37;78.42
64111;DHT22;50401;48.188;11.566;2023-08-17T00:14:50;22.22;78.91
64111;DHT22;50401;48.188;11.566;2023-08-17T00:17:16;22.22;78.96
64111;DHT22;50401;48.188;11.566;2023-08-17T00:19:41;22.09;79.33
64111;DHT22;50401;48.188;11.566;2023-08-17T00:22:06;21.84;80.18
64111;DHT22;50401;48.188;11.566;2023-08-17T00:24:31;21.67;80.72
64111;DHT22;50401;48.188;11.566;2023-08-17T00:26:57;21.69;80.58
64111;DHT22;50401;48.188;11.566;2023-08-17T00:29:22;21.77;80.48
64111;DHT22;50401;48.188;11.566;2023-08-17T00:31:47;21.88;80.15
64111;DHT22;50401;48.188;11.566;2023-08-17T00:34:13;21.84;80.07
64111;DHT22;50401;48.188;11.566;2023-08-17T00:36:38;21.95;80.07
64111;DHT22;50401;48.188;11.566;2023-08-17T00:39:03;22.02;79.80
64111;DHT22;50401;48.188;11.566;2023-08-17T00:41:29;22.05;79.80
64111;DHT22;50401;48.188;11.566;2023-08-17T00:43:55;22.13;79.42
64111;DHT22;50401;48.188;11.566;2023-08-17T00:46:21;22.12;79.62
64111;DHT22;50401;48.188;11.566;2023-08-17T00:48:48;22.11;79.72
64111;DHT22;50401;48.188;11.566;2023-08-17T00:51:14;22.05;79.92
64111;DHT22;50401;48.188;11.566;2023-08-17T00:53:39;21.80;80.88
64111;DHT22;50401;48.188;11.566;2023-08-17T00:56:05;21.83;80.86
64111;DHT22;50401;48.188;11.566;2023-08-17T00:58:31;21.98;80.54
64111;DHT22;50401;48.188;11.566;2023-08-17T01:00:57;21.97;80.37
64111;DHT22;50401;48.188;11.566;2023-08-17T01:03:22;21.88;80.57
64111;DHT22;50401;48.188;11.566;2023-08-17T01:05:48;21.78;80.84
64111;DHT22;50401;48.188;11.566;2023-08-17T01:08:14;21.87;80.71
64111;DHT22;50401;48.188;11.566;2023-08-17T01:11:01;22.01;80.30
64111;DHT22;50401;48.188;11.566;2023-08-17T01:16:34;21.87;80.59
64111;DHT22;50401;48.188;11.566;2023-08-17T01:19:01;21.88;80.46
64111;DHT22;50401;48.188;11.566;2023-08-17T01:21:35;22.02;80.06
64111;DHT22;50401;48.188;11.566;2023-08-17T01:24:03;22.08;79.88
64111;DHT22;50401;48.188;11.566;2023-08-17T01:26:29;21.85;80.51
64111;DHT22;50401;48.188;11.566;2023-08-17T01:28:54;21.43;81.71
64111;DHT22;50401;48.188;11.566;2023-08-17T01:31:31;21.28;82.31
64111;DHT22;50401;48.188;11.566;2023-08-17T01:34:04;21.25;82.45
64111;DHT22;50401;48.188;11.566;2023-08-17T01:36:40;21.35;82.24
64111;DHT22;50401;48.188;11.566;2023-08-17T01:39:08;21.47;81.79
64111;DHT22;50401;48.188;11.566;2023-08-17T01:41:34;21.64;81.37
64111;DHT22;50401;48.188;11.566;2023-08-17T01:44:00;21.42;81.73
64111;DHT22;50401;48.188;11.566;2023-08-17T01:46:30;21.50;81.37
64111;DHT22;50401;48.188;11.566;2023-08-17T01:48:56;21.50;81.22
64111;DHT22;50401;48.188;11.566;2023-08-17T01:51:21;20.98;82.61
64111;DHT22;50401;48.188;11.566;2023-08-17T01:53:47;20.73;83.35
64111;DHT22;50401;48.188;11.566;2023-08-17T01:56:12;20.95;82.77
64111;DHT22;50401;48.188;11.566;2023-08-17T01:58:38;20.97;82.85
64111;DHT22;50401;48.188;11.566;2023-08-17T02:01:03;20.81;83.15
64111;DHT22;50401;48.188;11.566;2023-08-17T02:03:28;20.77;83.35
64111;DHT22;50401;48.188;11.566;2023-08-17T02:05:57;20.72;83.54
64111;DHT22;50401;48.188;11.566;2023-08-17T02:08:23;20.90;83.18
64111;DHT22;50401;48.188;11.566;2023-08-17T02:10:48;21.04;82.75
64111;DHT22;50401;48.188;11.566;2023-08-17T02:13:14;21.11;82.57
64111;DHT22;50401;48.188;11.566;2023-08-17T02:15:40;20.97;82.78
64111;DHT22;50401;48.188;11.566;2023-08-17T02:18:05;20.84;83.17
64111;DHT22;50401;48.188;11.566;2023-08-17T02:20:31;20.77;83.59
64111;DHT22;50401;48.188;11.566;2023-08-17T02:22:56;20.59;84.11
64111;DHT22;50401;48.188;11.566;2023-08-17T02:25:22;20.67;84.11
64111;DHT22;50401;48.188;11.566;2023-08-17T02:27:47;20.45;84.69
64111;DHT22;50401;48.188;11.566;2023-08-17T02:30:13;20.46;84.79
64111;DHT22;50401;48.188;11.566;2023-08-17T02:32:38;20.36;85.06
64111;DHT22;50401;48.188;11.566;2023-08-17T02:35:04;20.39;85.09
64111;DHT22;50401;48.188;11.566;2023-08-17T02:37:29;20.56;84.71
64111;DHT22;50401;48.188;11.566;2023-08-17T02:39:55;20.79;84.16
64111;DHT22;50401;48.188;11.566;2023-08-17T02:42:20;20.67;84.15
64111;DHT22;50401;48.188;11.566;2023-08-17T02:44:45;20.56;84.58
64111;DHT22;50401;48.188;11.566;2023-08-17T02:47:11;20.42;84.99
64111;DHT22;50401;48.188;11.566;2023-08-17T02:49:36;20.62;84.64
64111;DHT22;50401;48.188;11.566;2023-08-17T02:52:01;20.67;84.37
64111;DHT22;50401;48.188;11.566;2023-08-17T02:54:27;20.77;84.19
64111;DHT22;50401;48.188;11.566;2023-08-17T02:56:52;20.90;83.91
64111;DHT22;50401;48.188;11.566;2023-08-17T02:59:18;21.11;83.27
64111;DHT22;50401;48.188;11.566;2023-08-17T03:01:45;21.22;83.02
64111;DHT22;50401;48.188;11.566;2023-08-17T03:04:10;21.29;82.59
64111;DHT22;50401;48.188;11.566;2023-08-17T03:06:36;21.39;82.22
64111;DHT22;50401;48.188;11.566;2023-08-17T03:09:01;21.41;82.08
64111;DHT22;50401;48.188;11.566;2023-08-17T03:11:27;21.43;82.05
64111;DHT22;50401;48.188;11.566;2023-08-17T03:13:52;21.46;81.93
64111;DHT22;50401;48.188;11.566;2023-08-17T03:16:20;21.47;81.92
64111;DHT22;50401;48.188;11.566;2023-08-17T03:18:46;21.49;81.78
64111;DHT22;50401;48.188;11.566;2023-08-17T03:21:13;21.46;81.75
64111;DHT22;50401;48.188;11.566;2023-08-17T03:23:38;21.43;81.86
64111;DHT22;50401;48.188;11.566;2023-08-17T03:26:03;21.45;81.79
64111;DHT22;50401;48.188;11.566;2023-08-17T03:28:29;21.41;81.66
64111;DHT22;50401;48.188;11.566;2023-08-17T03:30:55;21.43;81.48
64111;DHT22;50401;48.188;11.566;2023-08-17T03:33:21;21.41;81.41
64111;DHT22;50401;48.188;11.566;2023-08-17T03:35:46;21.32;81.41
64111;DHT22;50401;48.188;11.566;2023-08-17T03:38:12;21.31;81.47
64111;DHT22;50401;48.188;11.566;2023-08-17T03:40:37;21.26;81.67
64111;DHT22;50401;48.188;11.566;2023-08-17T03:43:03;21.29;81.60
64111;DHT22;50401;48.188;11.566;2023-08-17T03:45:29;21.28;81.47
64111;DHT22;50401;48.188;11.566;2023-08-17T03:47:54;21.28;81.45
64111;DHT22;50401;48.188;11.566;2023-08-17T03:50:20;21.22;81.64
64111;DHT22;50401;48.188;11.566;2023-08-17T03:52:45;21.24;81.58
64111;DHT22;50401;48.188;11.566;2023-08-17T03:55:10;21.24;81.59
64111;DHT22;50401;48.188;11.566;2023-08-17T03:57:36;21.22;81.66
64111;DHT22;50401;48.188;11.566;2023-08-17T04:00:01;21.21;81.66
64111;DHT22;50401;48.188;11.566;2023-08-17T04:02:27;21.22;81.72
64111;DHT22;50401;48.188;11.566;2023-08-17T04:04:52;21.25;81.68
64111;DHT22;50401;48.188;11.566;2023-08-17T04:07:22;21.25;81.76
64111;DHT22;50401;48.188;11.566;2023-08-17T04:09:50;21.24;81.83
64111;DHT22;50401;48.188;11.566;2023-08-17T04:12:15;21.26;81.61
64111;DHT22;50401;48.188;11.566;2023-08-17T04:14:40;21.22;81.59
64111;DHT22;50401;48.188;11.566;2023-08-17T04:17:06;21.22;81.58
64111;DHT22;50401;48.188;11.566;2023-08-17T04:19:32;21.19;81.66
64111;DHT22;50401;48.188;11.566;2023-08-17T04:21:57;21.21;81.63
64111;DHT22;50401;48.188;11.566;2023-08-17T04:24:23;21.18;81.63
64111;DHT22;50401;48.188;11.566;2023-08-17T04:26:49;21.19;81.59
64111;DHT22;50401;48.188;11.566;2023-08-17T04:29:14;21.24;81.32
64111;DHT22;50401;48.188;11.566;2023-08-17T04:31:39;21.19;81.33
64111;DHT22;50401;48.188;11.566;2023-08-17T04:34:05;21.17;81.49
64111;DHT22;50401;48.188;11.566;2023-08-17T04:36:30;21.21;81.44
64111;DHT22;50401;48.188;11.566;2023-08-17T04:38:56;21.28;81.33
64111;DHT22;50401;48.188;11.566;2023-08-17T04:41:21;21.34;80.93
64111;DHT22;50401;48.188;11.566;2023-08-17T04:43:47;21.38;80.93
64111;DHT22;50401;48.188;11.566;2023-08-17T04:46:14;21.46;80.79
64111;DHT22;50401;48.188;11.566;2023-08-17T04:48:39;21.60;80.40
64111;DHT22;50401;48.188;11.566;2023-08-17T04:51:04;21.74;80.25
64111;DHT22;50401;48.188;11.566;2023-08-17T04:53:30;21.95;79.47
64111;DHT22;50401;48.188;11.566;2023-08-17T04:55:55;22.23;78.77
64111;DHT22;50401;48.188;11.566;2023-08-17T04:58:20;22.52;77.79
64111;DHT22;50401;48.188;11.566;2023-08-17T05:00:47;22.78;76.84
64111;DHT22;50401;48.188;11.566;2023-08-17T05:03:13;23.11;75.88
64111;DHT22;50401;48.188;11.566;2023-08-17T05:05:38;23.38;74.74
64111;DHT22;50401;48.188;11.566;2023-08-17T05:08:04;23.67;73.99
64111;DHT22;50401;48.188;11.566;2023-08-17T05:10:29;23.92;73.15
64111;DHT22;50401;48.188;11.566;2023-08-17T05:12:54;24.15;72.33
64111;DHT22;50401;48.188;11.566;2023-08-17T05:15:20;24.41;71.78
64111;DHT22;50401;48.188;11.566;2023-08-17T05:17:46;24.75;70.75
64111;DHT22;50401;48.188;11.566;2023-08-17T05:20:11;25.06;69.67
64111;DHT22;50401;48.188;11.566;2023-08-17T05:22:38;25.37;68.51
64111;DHT22;50401;48.188;11.566;2023-08-17T05:25:03;25.65;67.83
64111;DHT22;50401;48.188;11.566;2023-08-17T05:27:29;25.54;67.13
64111;DHT22;50401;48.188;11.566;2023-08-17T05:29:54;25.57;67.34
64111;DHT22;50401;48.188;11.566;2023-08-17T05:32:19;26.09;66.56
64111;DHT22;50401;48.188;11.566;2023-08-17T05:34:46;26.56;65.10
64111;DHT22;50401;48.188;11.566;2023-08-17T05:37:12;27.02;63.92
64111;DHT22;50401;48.188;11.566;2023-08-17T05:39:37;27.35;62.79
64111;DHT22;50401;48.188;11.566;2023-08-17T05:42:03;27.70;62.16
64111;DHT22;50401;48.188;11.566;2023-08-17T05:44:28;27.99;60.94
64111;DHT22;50401;48.188;11.566;2023-08-17T05:46:54;28.13;60.42
64111;DHT22;50401;48.188;11.566;2023-08-17T05:49:19;28.24;60.22
64111;DHT22;50401;48.188;11.566;2023-08-17T05:51:44;28.49;59.50
64111;DHT22;50401;48.188;11.566;2023-08-17T05:54:09;28.86;58.52
64111;DHT22;50401;48.188;11.566;2023-08-17T05:56:35;27.35;61.71
64111;DHT22;50401;48.188;11.566;2023-08-17T05:59:00;27.83;60.41
64111;DHT22;50401;48.188;11.566;2023-08-17T06:01:25;27.37;61.34
64111;DHT22;50401;48.188;11.566;2023-08-17T06:03:51;27.45;61.58
64111;DHT22;50401;48.188;11.566;2023-08-17T06:06:16;28.18;59.63
64111;DHT22;50401;48.188;11.566;2023-08-17T06:08:41;28.49;59.23
64111;DHT22;50401;48.188;11.566;2023-08-17T06:11:07;29.41;57.29
64111;DHT22;50401;48.188;11.566;2023-08-17T06:13:32;30.02;55.31
64111;DHT22;50401;48.188;11.566;2023-08-17T06:15:57;30.40;54.38
64111;DHT22;50401;48.188;11.566;2023-08-17T06:18:23;30.64;53.84
64111;DHT22;50401;48.188;11.566;2023-08-17T06:20:48;30.70;53.38
64111;DHT22;50401;48.188;11.566;2023-08-17T06:23:17;30.78;53.57
64111;DHT22;50401;48.188;11.566;2023-08-17T06:25:42;30.62;53.89
64111;DHT22;50401;48.188;11.566;2023-08-17T06:28:07;30.19;54.95
64111;DHT22;50401;48.188;11.566;2023-08-17T06:30:33;29.07;56.95
64111;DHT22;50401;48.188;11.566;2023-08-17T06:32:58;26.82;62.54
64111;DHT22;50401;48.188;11.566;2023-08-17T06:35:24;26.93;62.68
64111;DHT22;50401;48.188;11.566;2023-08-17T06:37:49;26.55;63.05
64111;DHT22;50401;48.188;11.566;2023-08-17T06:40:16;25.57;65.66
64111;DHT22;50401;48.188;11.566;2023-08-17T06:42:41;25.30;66.63
64111;DHT22;50401;48.188;11.566;2023-08-17T06:45:07;24.95;67.92
64111;DHT22;50401;48.188;11.566;2023-08-17T06:47:32;24.60;68.91
64111;DHT22;50401;48.188;11.566;2023-08-17T06:49:58;24.89;68.84
64111;DHT22;50401;48.188;11.566;2023-08-17T06:52:23;25.40;67.87
64111;DHT22;50401;48.188;11.566;2023-08-17T06:54:49;25.85;66.29
64111;DHT22;50401;48.188;11.566;2023-08-17T06:57:15;25.93;65.95
64111;DHT22;50401;48.188;11.566;2023-08-17T06:59:40;26.43;63.92
64111;DHT22;50401;48.188;11.566;2023-08-17T07:02:05;26.87;63.55
64111;DHT22;50401;48.188;11.566;2023-08-17T07:04:31;27.24;62.59
64111;DHT22;50401;48.188;11.566;2023-08-17T07:06:56;27.30;62.40
64111;DHT22;50401;48.188;11.566;2023-08-17T07:09:22;27.26;62.21
64111;DHT22;50401;48.188;11.566;2023-08-17T07:11:47;27.31;62.20
64111;DHT22;50401;48.188;11.566;2023-08-17T07:14:13;26.51;63.61
64111;DHT22;50401;48.188;11.566;2023-08-17T07:16:38;26.49;63.84
64111;DHT22;50401;48.188;11.566;2023-08-17T07:19:03;25.41;66.54
64111;DHT22;50401;48.188;11.566;2023-08-17T07:21:29;25.35;66.51
64111;DHT22;50401;48.188;11.566;2023-08-17T07:23:58;25.74;65.75
64111;DHT22;50401;48.188;11.566;2023-08-17T07:26:36;26.36;64.26
64111;DHT22;50401;48.188;11.566;2023-08-17T07:29:01;26.90;63.34
64111;DHT22;50401;48.188;11.566;2023-08-17T07:31:26;26.86;62.77
64111;DHT22;50401;48.188;11.566;2023-08-17T07:33:52;26.58;63.16
64111;DHT22;50401;48.188;11.566;2023-08-17T07:36:17;27.38;61.36
64111;DHT22;50401;48.188;11.566;2023-08-17T07:38:43;28.62;59.06
64111;DHT22;50401;48.188;11.566;2023-08-17T07:41:08;29.15;55.69
64111;DHT22;50401;48.188;11.566;2023-08-17T07:43:33;30.21;53.47
64111;DHT22;50401;48.188;11.566;2023-08-17T07:45:59;30.56;51.94
64111;DHT22;50401;48.188;11.566;2023-08-17T07:48:24;31.29;50.39
64111;DHT22;50401;48.188;11.566;2023-08-17T07:50:51;33.81;45.77
64111;DHT22;50401;48.188;11.566;2023-08-17T07:53:18;35.30;42.79
64111;DHT22;50401;48.188;11.566;2023-08-17T07:55:43;36.68;40.70
64111;DHT22;50401;48.188;11.566;2023-08-17T07:58:08;34.09;44.62
64111;DHT22;50401;48.188;11.566;2023-08-17T08:00:34;34.61;44.61
64111;DHT22;50401;48.188;11.566;2023-08-17T08:02:59;33.64;45.86
64111;DHT22;50401;48.188;11.566;2023-08-17T08:05:25;35.76;42.56
64111;DHT22;50401;48.188;11.566;2023-08-17T08:07:51;36.51;40.78
64111;DHT22;50401;48.188;11.566;2023-08-17T08:10:16;36.95;40.07
64111;DHT22;50401;48.188;11.566;2023-08-17T08:12:41;37.99;38.81
64111;DHT22;50401;48.188;11.566;2023-08-17T08:15:07;33.61;45.18
64111;DHT22;50401;48.188;11.566;2023-08-17T08:17:32;34.02;44.40
64111;DHT22;50401;48.188;11.566;2023-08-17T08:19:58;34.90;43.40
64111;DHT22;50401;48.188;11.566;2023-08-17T08:22:24;35.80;41.96
64111;DHT22;50401;48.188;11.566;2023-08-17T08:24:50;34.32;43.50
64111;DHT22;50401;48.188;11.566;2023-08-17T08:27:16;36.12;41.23
64111;DHT22;50401;48.188;11.566;2023-08-17T08:29:41;37.19;39.51
64111;DHT22;50401;48.188;11.566;2023-08-17T08:32:06;37.99;38.39
64111;DHT22;50401;48.188;11.566;2023-08-17T08:34:31;38.27;37.95
64111;DHT22;50401;48.188;11.566;2023-08-17T08:36:57;37.55;38.12
64111;DHT22;50401;48.188;11.566;2023-08-17T08:39:25;36.26;39.92
64111;DHT22;50401;48.188;11.566;2023-08-17T08:41:50;36.05;40.50
64111;DHT22;50401;48.188;11.566;2023-08-17T08:44:16;36.09;41.01
64111;DHT22;50401;48.188;11.566;2023-08-17T08:46:44;35.12;41.85
64111;DHT22;50401;48.188;11.566;2023-08-17T08:49:10;35.05;42.24
64111;DHT22;50401;48.188;11.566;2023-08-17T08:51:40;32.90;45.69
64111;DHT22;50401;48.188;11.566;2023-08-17T08:54:08;32.14;47.16
64111;DHT22;50401;48.188;11.566;2023-08-17T08:56:37;32.64;46.47
64111;DHT22;50401;48.188;11.566;2023-08-17T08:59:04;33.27;45.52
64111;DHT22;50401;48.188;11.566;2023-08-17T09:01:33;33.61;45.51
64111;DHT22;50401;48.188;11.566;2023-08-17T09:03:59;33.80;45.32
64111;DHT22;50401;48.188;11.566;2023-08-17T09:06:27;34.02;44.90
64111;DHT22;50401;48.188;11.566;2023-08-17T09:08:54;33.43;45.13
64111;DHT22;50401;48.188;11.566;2023-08-17T09:11:20;32.68;46.37
64111;DHT22;50401;48.188;11.566;2023-08-17T09:13:45;31.40;48.89
64111;DHT22;50401;48.188;11.566;2023-08-17T09:16:10;30.86;50.43
64111;DHT22;50401;48.188;11.566;2023-08-17T09:18:36;31.50;49.08
64111;DHT22;50401;48.188;11.566;2023-08-17T09:21:01;31.91;48.99
64111;DHT22;50401;48.188;11.566;2023-08-17T09:23:27;30.90;50.62
64111;DHT22;50401;48.188;11.566;2023-08-17T09:25:52;31.18;50.27
64111;DHT22;50401;48.188;11.566;2023-08-17T09:28:23;30.98;51.15
64111;DHT22;50401;48.188;11.566;2023-08-17T09:30:56;30.94;50.93
64111;DHT22;50401;48.188;11.566;2023-08-17T09:33:26;30.55;51.30
64111;DHT22;50401;48.188;11.566;2023-08-17T09:35:53;30.18;52.45
64111;DHT22;50401;48.188;11.566;2023-08-17T09:38:19;30.46;51.80
64111;DHT22;50401;48.188;11.566;2023-08-17T09:40:45;30.43;51.85
64111;DHT22;50401;48.188;11.566;2023-08-17T09:43:11;30.14;52.98
64111;DHT22;50401;48.188;11.566;2023-08-17T09:45:39;30.70;51.11
64111;DHT22;50401;48.188;11.566;2023-08-17T09:48:06;31.29;50.24
64111;DHT22;50401;48.188;11.566;2023-08-17T09:50:31;31.25;50.35
64111;DHT22;50401;48.188;11.566;2023-08-17T09:52:57;31.10;51.43
64111;DHT22;50401;48.188;11.566;2023-08-17T09:55:23;31.32;50.73
64111;DHT22;50401;48.188;11.566;2023-08-17T09:57:50;31.29;50.05
64111;DHT22;50401;48.188;11.566;2023-08-17T10:00:16;30.47;53.08
64111;DHT22;50401;48.188;11.566;2023-08-17T10:02:49;30.43;53.10
64111;DHT22;50401;48.188;11.566;2023-08-17T10:05:18;30.18;53.91
64111;DHT22;50401;48.188;11.566;2023-08-17T10:07:47;29.49;55.43
64111;DHT22;50401;48.188;11.566;2023-08-17T10:10:17;29.08;56.59
64111;DHT22;50401;48.188;11.566;2023-08-17T10:12:45;29.38;55.92
64111;DHT22;50401;48.188;11.566;2023-08-17T10:15:15;29.01;56.62
64111;DHT22;50401;48.188;11.566;2023-08-17T10:17:56;28.65;57.33
64111;DHT22;50401;48.188;11.566;2023-08-17T10:20:24;29.17;56.47
64111;DHT22;50401;48.188;11.566;2023-08-17T10:23:14;29.56;55.37
64111;DHT22;50401;48.188;11.566;2023-08-17T10:25:41;29.51;55.25
64111;DHT22;50401;48.188;11.566;2023-08-17T10:28:11;29.60;55.36
64111;DHT22;50401;48.188;11.566;2023-08-17T10:30:37;29.66;54.59
64111;DHT22;50401;48.188;11.566;2023-08-17T10:33:05;29.69;54.58
64111;DHT22;50401;48.188;11.566;2023-08-17T10:35:32;29.63;54.46
64111;DHT22;50401;48.188;11.566;2023-08-17T10:37:58;29.03;55.88
64111;DHT22;50401;48.188;11.566;2023-08-17T10:40:28;29.36;55.49
64111;DHT22;50401;48.188;11.566;2023-08-17T10:42:54;29.53;55.27
64111;DHT22;50401;48.188;11.566;2023-08-17T10:45:27;29.69;54.52
64111;DHT22;50401;48.188;11.566;2023-08-17T10:50:37;29.72;55.05
64111;DHT22;50401;48.188;11.566;2023-08-17T10:53:09;29.77;55.49
64111;DHT22;50401;48.188;11.566;2023-08-17T10:55:40;29.72;55.55
64111;DHT22;50401;48.188;11.566;2023-08-17T10:58:06;29.62;56.05
64111;DHT22;50401;48.188;11.566;2023-08-17T11:00:38;29.60;56.26
64111;DHT22;50401;48.188;11.566;2023-08-17T11:03:10;29.62;55.67
64111;DHT22;50401;48.188;11.566;2023-08-17T11:08:27;29.24;55.67
64111;DHT22;50401;48.188;11.566;2023-08-17T11:11:09;28.94;56.36
64111;DHT22;50401;48.188;11.566;2023-08-17T11:13:43;29.26;56.07
64111;DHT22;50401;48.188;11.566;2023-08-17T11:16:10;29.19;55.93
64111;DHT22;50401;48.188;11.566;2023-08-17T11:18:36;29.43;55.39
64111;DHT22;50401;48.188;11.566;2023-08-17T11:21:03;29.34;55.24
64111;DHT22;50401;48.188;11.566;2023-08-17T11:23:36;29.42;55.56
64111;DHT22;50401;48.188;11.566;2023-08-17T11:26:02;29.52;55.55
64111;DHT22;50401;48.188;11.566;2023-08-17T11:28:29;29.45;54.84
64111;DHT22;50401;48.188;11.566;2023-08-17T11:31:02;29.17;55.09
64111;DHT22;50401;48.188;11.566;2023-08-17T11:33:29;29.07;55.90
64111;DHT22;50401;48.188;11.566;2023-08-17T11:35:56;29.25;56.08
64111;DHT22;50401;48.188;11.566;2023-08-17T11:38:21;29.38;55.53
64111;DHT22;50401;48.188;11.566;2023-08-17T11:40:47;29.11;56.31
64111;DHT22;50401;48.188;11.566;2023-08-17T11:43:13;29.11;56.15
64111;DHT22;50401;48.188;11.566;2023-08-17T11:45:39;29.14;56.42
64111;DHT22;50401;48.188;11.566;2023-08-17T11:48:05;29.39;55.87
64111;DHT22;50401;48.188;11.566;2023-08-17T11:50:30;29.55;55.87
64111;DHT22;50401;48.188;11.566;2023-08-17T11:52:59;29.65;55.93
64111;DHT22;50401;48.188;11.566;2023-08-17T11:55:24;29.07;56.24
64111;DHT22;50401;48.188;11.566;2023-08-17T11:57:50;29.34;56.13
64111;DHT22;50401;48.188;11.566;2023-08-17T12:00:19;29.22;55.91
64111;DHT22;50401;48.188;11.566;2023-08-17T12:02:49;29.01;56.00
64111;DHT22;50401;48.188;11.566;2023-08-17T12:05:22;29.04;56.29
64111;DHT22;50401;48.188;11.566;2023-08-17T12:07:49;28.94;56.00
64111;DHT22;50401;48.188;11.566;2023-08-17T12:10:14;28.94;55.86
64111;DHT22;50401;48.188;11.566;2023-08-17T12:12:40;29.10;56.17
64111;DHT22;50401;48.188;11.566;2023-08-17T12:15:06;29.36;55.82
64111;DHT22;50401;48.188;11.566;2023-08-17T12:17:31;29.36;55.70
64111;DHT22;50401;48.188;11.566;2023-08-17T12:19:58;29.42;55.63
64111;DHT22;50401;48.188;11.566;2023-08-17T12:22:25;29.36;55.90
64111;DHT22;50401;48.188;11.566;2023-08-17T12:24:53;29.53;55.65
64111;DHT22;50401;48.188;11.566;2023-08-17T12:27:18;29.65;55.31
64111;DHT22;50401;48.188;11.566;2023-08-17T12:29:49;29.55;55.51
64111;DHT22;50401;48.188;11.566;2023-08-17T12:32:17;29.70;54.70
64111;DHT22;50401;48.188;11.566;2023-08-17T12:34:43;29.67;54.52
64111;DHT22;50401;48.188;11.566;2023-08-17T12:37:12;29.28;54.60
64111;DHT22;50401;48.188;11.566;2023-08-17T12:39:43;29.42;54.48
64111;DHT22;50401;48.188;11.566;2023-08-17T12:42:08;29.41;53.84
64111;DHT22;50401;48.188;11.566;2023-08-17T12:44:33;29.45;53.70
64111;DHT22;50401;48.188;11.566;2023-08-17T12:46:58;29.51;53.05
64111;DHT22;50401;48.188;11.566;2023-08-17T12:49:24;29.39;52.24
64111;DHT22;50401;48.188;11.566;2023-08-17T12:51:49;29.18;52.36
64111;DHT22;50401;48.188;11.566;2023-08-17T12:54:15;29.41;51.81
64111;DHT22;50401;48.188;11.566;2023-08-17T12:56:40;29.31;51.25
64111;DHT22;50401;48.188;11.566;2023-08-17T12:59:05;29.36;51.18
64111;DHT22;50401;48.188;11.566;2023-08-17T13:01:31;29.51;51.06
64111;DHT22;50401;48.188;11.566;2023-08-17T13:03:56;29.66;51.26
64111;DHT22;50401;48.188;11.566;2023-08-17T13:06:21;29.73;50.12
64111;DHT22;50401;48.188;11.566;2023-08-17T13:08:47;29.84;50.17
64111;DHT22;50401;48.188;11.566;2023-08-17T13:11:12;29.55;49.12
64111;DHT22;50401;48.188;11.566;2023-08-17T13:13:37;29.76;48.46
64111;DHT22;50401;48.188;11.566;2023-08-17T13:16:03;29.77;48.08
64111;DHT22;50401;48.188;11.566;2023-08-17T13:18:28;29.80;47.58
64111;DHT22;50401;48.188;11.566;2023-08-17T13:20:54;29.51;46.93
64111;DHT22;50401;48.188;11.566;2023-08-17T13:23:19;29.55;47.16
64111;DHT22;50401;48.188;11.566;2023-08-17T13:25:44;29.73;47.31
64111;DHT22;50401;48.188;11.566;2023-08-17T13:28:10;29.81;46.77
64111;DHT22;50401;48.188;11.566;2023-08-17T13:30:35;29.49;45.71
64111;DHT22;50401;48.188;11.566;2023-08-17T13:33:00;29.66;44.93
64111;DHT22;50401;48.188;11.566;2023-08-17T13:35:26;29.77;45.16
64111;DHT22;50401;48.188;11.566;2023-08-17T13:37:54;29.90;44.42
64111;DHT22;50401;48.188;11.566;2023-08-17T13:40:20;29.88;43.62
64111;DHT22;50401;48.188;11.566;2023-08-17T13:42:46;29.90;43.27
64111;DHT22;50401;48.188;11.566;2023-08-17T13:45:11;29.91;42.89
64111;DHT22;50401;48.188;11.566;2023-08-17T13:47:37;29.84;44.02
64111;DHT22;50401;48.188;11.566;2023-08-17T13:50:02;29.76;44.83
64111;DHT22;50401;48.188;11.566;2023-08-17T13:52:28;29.69;43.68
64111;DHT22;50401;48.188;11.566;2023-08-17T13:54:53;29.52;42.70
64111;DHT22;50401;48.188;11.566;2023-08-17T13:57:19;29.35;43.38
64111;DHT22;50401;48.188;11.566;2023-08-17T13:59:44;29.41;44.48
64111;DHT22;50401;48.188;11.566;2023-08-17T14:02:10;29.35;45.53
64111;DHT22;50401;48.188;11.566;2023-08-17T14:04:35;29.41;47.32
64111;DHT22;50401;48.188;11.566;2023-08-17T14:07:00;29.36;51.91
64111;DHT22;50401;48.188;11.566;2023-08-17T14:09:26;29.24;53.49
64111;DHT22;50401;48.188;11.566;2023-08-17T14:11:51;29.07;53.70
64111;DHT22;50401;48.188;11.566;2023-08-17T14:14:16;29.10;54.17
64111;DHT22;50401;48.188;11.566;2023-08-17T14:16:42;29.07;54.62
64111;DHT22;50401;48.188;11.566;2023-08-17T14:19:07;29.03;55.13
64111;DHT22;50401;48.188;11.566;2023-08-17T14:21:33;28.94;55.02
64111;DHT22;50401;48.188;11.566;2023-08-17T14:23:58;28.80;55.28
64111;DHT22;50401;48.188;11.566;2023-08-17T14:26:23;28.80;55.12
64111;DHT22;50401;48.188;11.566;2023-08-17T14:28:49;28.76;54.63
64111;DHT22;50401;48.188;11.566;2023-08-17T14:31:14;28.65;55.44
64111;DHT22;50401;48.188;11.566;2023-08-17T14:33:43;28.67;55.85
64111;DHT22;50401;48.188;11.566;2023-08-17T14:36:11;28.75;55.59
64111;DHT22;50401;48.188;11.566;2023-08-17T14:38:37;28.80;55.08
64111;DHT22;50401;48.188;11.566;2023-08-17T14:41:02;28.86;55.31
64111;DHT22;50401;48.188;11.566;2023-08-17T14:43:30;28.91;55.05
64111;DHT22;50401;48.188;11.566;2023-08-17T14:45:55;29.10;54.68
64111;DHT22;50401;48.188;11.566;2023-08-17T14:48:21;29.17;54.87
64111;DHT22;50401;48.188;11.566;2023-08-17T14:50:46;29.14;54.84
64111;DHT22;50401;48.188;11.566;2023-08-17T14:53:11;29.11;54.58
64111;DHT22;50401;48.188;11.566;2023-08-17T14:55:37;28.99;54.15
64111;DHT22;50401;48.188;11.566;2023-08-17T14:58:02;29.15;54.14
64111;DHT22;50401;48.188;11.566;2023-08-17T15:00:27;29.29;54.64
64111;DHT22;50401;48.188;11.566;2023-08-17T15:02:57;29.17;55.78
64111;DHT22;50401;48.188;11.566;2023-08-17T15:05:25;29.35;55.51
64111;DHT22;50401;48.188;11.566;2023-08-17T15:07:51;29.38;55.39
64111;DHT22;50401;48.188;11.566;2023-08-17T15:10:16;29.42;55.25
64111;DHT22;50401;48.188;11.566;2023-08-17T15:12:42;29.55;54.91
64111;DHT22;50401;48.188;11.566;2023-08-17T15:15:07;29.41;52.72
64111;DHT22;50401;48.188;11.566;2023-08-17T15:17:33;29.45;52.33